Terminal Aerodrome Forecast
Issued by NWS Anchorage, AK

Home | Current Version | Previous Version | Text Only | Print | Product List | Glossary On
Versions: 1 2 3 4 5 6 7 8 9 10 11 12 13 14 15 16 17
000
FTAK31 PANC 182101 AAB
TAFANC
TAF AMD
PANC 182101Z 1821/1924 15007KT P6SM VCSH FEW050 BKN090
     FM182300 16010G18KT P6SM VCSH SCT050 BKN070
     FM190100 17016G26KT P6SM SCT070 BKN100
     FM190600 16007KT P6SM SCT100
     FM191000 36004KT P6SM SCT200=

USA.gov is the U.S. government's official web portal to all federal, state and local government web resources and services.